createdAt,value
2023-02-11T00:01:36.793Z,12.55
2023-02-11T00:04:12.626Z,13.55
2023-02-11T00:06:39.589Z,14.43
2023-02-11T00:09:06.443Z,12.15
2023-02-11T00:11:33.974Z,10.88
2023-02-11T00:14:04.528Z,11.82
2023-02-11T00:16:32.837Z,12.32
2023-02-11T00:19:00.868Z,15.07
2023-02-11T00:21:28.110Z,13.77
2023-02-11T00:23:57.203Z,16.50
2023-02-11T00:26:27.552Z,13.82
2023-02-11T00:28:54.892Z,11.63
2023-02-11T00:31:23.257Z,13.85
2023-02-11T00:33:50.796Z,16.33
2023-02-11T00:36:20.453Z,10.35
2023-02-11T00:38:49.377Z,14.85
2023-02-11T00:41:17.227Z,13.63
2023-02-11T00:43:44.409Z,14.70
2023-02-11T00:46:11.102Z,16.40
2023-02-11T00:48:37.828Z,15.93
2023-02-11T00:51:05.302Z,16.50
2023-02-11T00:53:34.942Z,13.00
2023-02-11T00:56:02.433Z,14.73
2023-02-11T00:58:29.914Z,15.50
2023-02-11T01:00:57.549Z,17.02
2023-02-11T01:03:24.389Z,15.40
2023-02-11T01:05:51.623Z,15.43
2023-02-11T01:08:22.329Z,11.85
2023-02-11T01:11:02.557Z,9.93
2023-02-11T01:13:35.880Z,15.18
2023-02-11T01:16:03.393Z,11.27
2023-02-11T01:18:31.190Z,17.23
2023-02-11T01:20:59.673Z,14.77
2023-02-11T01:26:07.353Z,10.13
2023-02-11T01:28:37.748Z,11.77
2023-02-11T01:31:05.205Z,18.98
2023-02-11T01:33:31.905Z,14.52
2023-02-11T01:36:05.777Z,16.10
2023-02-11T01:38:34.077Z,20.08
2023-02-11T01:41:04.455Z,17.90
2023-02-11T01:43:34.467Z,14.25
2023-02-11T01:46:11.118Z,17.85
2023-02-11T01:48:42.191Z,12.15
2023-02-11T01:51:24.219Z,16.23
2023-02-11T01:54:10.495Z,10.48
2023-02-11T01:57:00.992Z,14.32
2023-02-11T01:59:33.362Z,14.88
2023-02-11T02:02:06.255Z,14.45
2023-02-11T02:04:38.978Z,16.00
2023-02-11T02:07:15.120Z,13.93
2023-02-11T02:09:49.499Z,14.23
2023-02-11T02:12:16.102Z,14.85
2023-02-11T02:14:43.192Z,13.05
2023-02-11T02:17:36.242Z,13.63
2023-02-11T02:23:12.605Z,12.52
2023-02-11T02:26:15.728Z,16.63
2023-02-11T02:29:04.575Z,16.40
2023-02-11T02:31:59.091Z,15.13
2023-02-11T02:34:38.605Z,14.75
2023-02-11T02:37:10.462Z,15.95
2023-02-11T02:39:37.621Z,16.38
2023-02-11T02:42:05.168Z,16.85
2023-02-11T02:44:32.533Z,14.05
2023-02-11T02:46:59.176Z,16.77
2023-02-11T02:49:25.978Z,13.20
2023-02-11T02:52:00.167Z,13.50
2023-02-11T02:54:57.127Z,13.98
2023-02-11T02:57:57.744Z,12.25
2023-02-11T03:00:55.420Z,13.27
2023-02-11T03:03:43.922Z,12.88
2023-02-11T03:06:44.178Z,14.95
2023-02-11T03:09:31.079Z,15.57
2023-02-11T03:11:58.644Z,14.30
2023-02-11T03:14:28.256Z,15.23
2023-02-11T03:16:58.410Z,10.55
2023-02-11T03:19:31.529Z,15.18
2023-02-11T03:21:58.218Z,16.27
2023-02-11T03:24:31.244Z,15.30
2023-02-11T03:27:04.147Z,14.43
2023-02-11T03:29:45.443Z,16.30
2023-02-11T03:32:22.272Z,15.55
2023-02-11T03:34:57.879Z,13.10
2023-02-11T03:37:30.944Z,17.08
2023-02-11T03:40:04.191Z,17.23
2023-02-11T03:42:38.465Z,16.55
2023-02-11T03:45:09.875Z,15.70
2023-02-11T03:47:40.280Z,13.95
2023-02-11T03:50:09.244Z,18.35
2023-02-11T03:52:38.545Z,19.25
2023-02-11T03:55:18.893Z,17.60
2023-02-11T03:57:46.570Z,20.55
2023-02-11T04:00:14.837Z,15.85
2023-02-11T04:02:42.207Z,18.80
2023-02-11T04:05:10.930Z,14.63
2023-02-11T04:07:37.595Z,15.13
2023-02-11T04:10:04.814Z,18.50
2023-02-11T04:12:32.214Z,17.98
2023-02-11T04:14:59.228Z,17.65
2023-02-11T04:17:26.731Z,18.92
2023-02-11T04:19:53.351Z,19.38
2023-02-11T04:22:23.741Z,17.63
2023-02-11T04:24:50.411Z,23.20
2023-02-11T04:27:17.451Z,18.23
2023-02-11T04:29:45.829Z,18.05
2023-02-11T04:32:12.763Z,19.42
2023-02-11T04:34:39.760Z,16.80
2023-02-11T04:37:07.013Z,20.67
2023-02-11T04:39:34.510Z,20.45
2023-02-11T04:42:01.406Z,16.23
2023-02-11T04:44:28.249Z,20.95
2023-02-11T04:46:54.928Z,18.75
2023-02-11T04:49:29.406Z,20.23
2023-02-11T04:54:37.086Z,23.83
2023-02-11T04:57:07.528Z,21.75
2023-02-11T04:59:34.854Z,25.65
2023-02-11T05:02:01.736Z,26.23
2023-02-11T05:04:28.409Z,25.17
2023-02-11T05:06:57.708Z,21.52
2023-02-11T05:09:25.688Z,25.10
2023-02-11T05:11:52.422Z,27.23
2023-02-11T05:14:19.950Z,27.77
2023-02-11T05:16:47.026Z,24.42
2023-02-11T05:19:13.777Z,26.33
2023-02-11T05:21:53.105Z,26.58
2023-02-11T05:24:27.364Z,24.60
2023-02-11T05:26:54.037Z,23.75
2023-02-11T05:29:20.675Z,25.02
2023-02-11T05:31:48.021Z,20.27
2023-02-11T05:34:14.690Z,19.65
2023-02-11T05:36:41.430Z,25.67
2023-02-11T05:39:08.751Z,25.40
2023-02-11T05:41:35.758Z,25.85
2023-02-11T05:44:02.698Z,27.00
2023-02-11T05:46:30.240Z,28.15
2023-02-11T05:48:57.150Z,28.45
2023-02-11T05:51:25.712Z,29.35
2023-02-11T05:56:33.282Z,26.58
2023-02-11T05:59:00.884Z,22.98
2023-02-11T06:01:27.900Z,25.40
2023-02-11T06:03:55.912Z,20.33
2023-02-11T06:06:22.571Z,26.73
2023-02-11T06:08:49.181Z,25.23
2023-02-11T06:11:18.155Z,28.40
2023-02-11T06:13:44.772Z,28.88
2023-02-11T06:16:11.486Z,26.83
2023-02-11T06:18:38.372Z,26.35
2023-02-11T06:21:09.875Z,25.40
2023-02-11T06:23:37.926Z,28.13
2023-02-11T06:26:06.564Z,31.02
2023-02-11T06:28:34.022Z,27.30
2023-02-11T06:31:10.403Z,31.13
2023-02-11T06:33:37.674Z,26.33
2023-02-11T06:36:05.841Z,26.33
2023-02-11T06:38:32.780Z,27.27
2023-02-11T06:40:59.303Z,24.65
2023-02-11T06:43:25.977Z,27.08
2023-02-11T06:45:55.396Z,31.20
2023-02-11T06:48:23.359Z,27.70
2023-02-11T06:50:49.959Z,25.38
2023-02-11T06:53:16.663Z,28.23
2023-02-11T06:55:43.728Z,28.17
2023-02-11T06:58:10.498Z,28.83
2023-02-11T07:00:37.546Z,27.45
2023-02-11T07:03:04.415Z,33.47
2023-02-11T07:05:31.124Z,28.13
2023-02-11T07:07:57.992Z,30.13
2023-02-11T07:10:24.871Z,32.78
2023-02-11T07:12:51.567Z,23.23
2023-02-11T07:15:18.307Z,31.15
2023-02-11T07:17:45.006Z,26.13
2023-02-11T07:20:14.771Z,30.63
2023-02-11T07:22:41.522Z,28.02
2023-02-11T07:25:08.769Z,33.05
2023-02-11T07:27:35.390Z,29.42
2023-02-11T07:30:01.950Z,27.52
2023-02-11T07:32:28.703Z,30.75
2023-02-11T07:34:55.772Z,29.40
2023-02-11T07:37:26.430Z,30.38
2023-02-11T07:39:53.018Z,33.55
2023-02-11T07:42:19.872Z,28.98
2023-02-11T07:44:49.308Z,29.50
2023-02-11T07:47:17.278Z,28.63
2023-02-11T07:49:43.917Z,31.58
2023-02-11T07:52:10.543Z,30.75
2023-02-11T07:54:37.283Z,29.48
2023-02-11T07:57:04.407Z,36.38
2023-02-11T07:59:31.162Z,32.42
2023-02-11T08:01:57.841Z,30.63
2023-02-11T08:04:24.490Z,32.00
2023-02-11T08:06:52.905Z,28.60
2023-02-11T08:09:19.685Z,33.25
2023-02-11T08:11:46.340Z,30.15
2023-02-11T08:14:13.191Z,29.20
2023-02-11T08:16:42.034Z,27.95
2023-02-11T08:19:13.488Z,29.45
2023-02-11T08:21:40.813Z,31.08
2023-02-11T08:24:08.029Z,28.67
2023-02-11T08:26:35.813Z,28.67
2023-02-11T08:29:09.119Z,26.42
2023-02-11T08:31:39.566Z,29.77
2023-02-11T08:34:06.716Z,30.75
2023-02-11T08:36:36.033Z,31.02
2023-02-11T08:39:18.059Z,31.00
2023-02-11T08:41:48.477Z,33.75
2023-02-11T08:44:15.067Z,30.25
2023-02-11T08:46:43.510Z,29.23
2023-02-11T08:51:38.692Z,29.33
2023-02-11T08:54:09.728Z,29.73
2023-02-11T08:56:38.173Z,29.25
2023-02-11T09:01:32.971Z,26.83
2023-02-11T09:04:00.094Z,32.67
2023-02-11T09:06:27.408Z,30.95
2023-02-11T09:08:55.990Z,30.08
2023-02-11T09:11:27.639Z,29.58
2023-02-11T09:13:54.787Z,30.50
2023-02-11T09:16:24.500Z,27.25
2023-02-11T09:18:51.277Z,28.13
2023-02-11T09:21:19.760Z,27.73
2023-02-11T09:26:21.423Z,23.40
2023-02-11T09:28:48.867Z,23.83
2023-02-11T09:34:03.573Z,24.80
2023-02-11T09:36:33.018Z,29.92
2023-02-11T09:39:01.397Z,24.52
2023-02-11T09:44:11.404Z,25.05
2023-02-11T09:46:42.266Z,26.27
2023-02-11T09:49:20.255Z,28.55
2023-02-11T09:51:51.752Z,23.35
2023-02-11T09:54:31.122Z,27.30
2023-02-11T09:56:57.749Z,27.27
2023-02-11T09:59:24.497Z,24.10
2023-02-11T10:01:57.829Z,22.50
2023-02-11T10:04:24.435Z,23.98
2023-02-11T10:06:56.423Z,23.60
2023-02-11T10:09:44.907Z,24.13
2023-02-11T10:12:43.437Z,21.92
2023-02-11T10:15:31.941Z,21.67
2023-02-11T10:18:16.985Z,23.55
2023-02-11T10:21:24.951Z,21.42
2023-02-11T10:23:57.015Z,21.98
2023-02-11T10:26:23.883Z,21.83
2023-02-11T10:28:54.608Z,25.40
2023-02-11T10:31:34.181Z,21.42
2023-02-11T10:34:05.864Z,20.10
2023-02-11T10:36:40.623Z,22.65
2023-02-11T10:39:14.958Z,24.13
2023-02-11T10:41:53.340Z,18.40
2023-02-11T10:44:26.341Z,18.50
2023-02-11T10:46:54.949Z,19.17
2023-02-11T10:49:42.635Z,21.40
2023-02-11T10:52:28.384Z,20.77
2023-02-11T10:55:03.204Z,18.52
2023-02-11T10:57:45.222Z,18.83
2023-02-11T11:00:18.139Z,16.55
2023-02-11T11:02:46.821Z,16.88
2023-02-11T11:05:20.672Z,19.13
2023-02-11T11:07:59.740Z,18.45
2023-02-11T11:10:43.381Z,18.48
2023-02-11T11:13:33.707Z,18.63
2023-02-11T11:16:07.717Z,17.23
2023-02-11T11:18:34.359Z,16.55
2023-02-11T11:21:05.820Z,17.45
2023-02-11T11:23:35.335Z,16.35
2023-02-11T11:26:12.824Z,15.25
2023-02-11T11:28:56.403Z,15.63
2023-02-11T11:31:28.809Z,15.35
2023-02-11T11:33:58.346Z,16.10
2023-02-11T11:36:36.209Z,18.55
2023-02-11T11:39:18.442Z,16.13
2023-02-11T11:41:59.762Z,15.95
2023-02-11T11:44:33.567Z,16.42
2023-02-11T11:47:22.401Z,17.02
2023-02-11T11:49:58.630Z,16.13
2023-02-11T11:52:44.576Z,13.93
2023-02-11T11:55:21.938Z,15.75
2023-02-11T11:57:49.478Z,15.77
2023-02-11T12:00:41.164Z,14.65
2023-02-11T12:03:32.631Z,16.05
2023-02-11T12:06:21.388Z,14.85
2023-02-11T12:08:57.793Z,14.90
2023-02-11T12:11:49.650Z,13.93
2023-02-11T12:14:32.053Z,13.43
2023-02-11T12:17:23.441Z,11.75
2023-02-11T12:20:18.114Z,14.73
2023-02-11T12:22:57.466Z,11.57
2023-02-11T12:25:44.223Z,12.50
2023-02-11T12:31:22.259Z,12.23
2023-02-11T12:33:59.881Z,13.27
2023-02-11T12:36:43.933Z,10.98
2023-02-11T12:39:32.934Z,11.50
2023-02-11T12:42:42.897Z,9.50
2023-02-11T12:45:12.597Z,11.13
2023-02-11T12:47:51.525Z,12.10
2023-02-11T12:50:35.350Z,11.07
2023-02-11T12:53:05.027Z,12.25
2023-02-11T12:55:37.711Z,12.45
2023-02-11T13:00:51.755Z,9.98
2023-02-11T13:03:33.300Z,11.98
2023-02-11T13:06:09.073Z,11.55
2023-02-11T13:08:49.712Z,10.27
2023-02-11T13:11:24.846Z,14.60
2023-02-11T13:14:16.699Z,10.23
2023-02-11T13:16:49.862Z,9.82
2023-02-11T13:19:25.058Z,11.70
2023-02-11T13:22:11.128Z,10.43
2023-02-11T13:25:02.341Z,13.32
2023-02-11T13:27:35.106Z,10.60
2023-02-11T13:30:27.487Z,10.68
2023-02-11T13:32:54.032Z,10.57
2023-02-11T13:35:38.594Z,10.90
2023-02-11T13:38:17.572Z,10.52
2023-02-11T13:40:46.154Z,11.00
2023-02-11T13:43:25.707Z,12.10
2023-02-11T13:45:59.595Z,11.77
2023-02-11T13:48:33.794Z,10.00
2023-02-11T13:51:10.897Z,11.23
2023-02-11T13:53:47.228Z,10.63
2023-02-11T13:56:29.782Z,11.02
2023-02-11T13:58:59.648Z,9.57
2023-02-11T14:02:18.368Z,12.85
2023-02-11T14:05:24.884Z,11.57
2023-02-11T14:08:28.817Z,9.40
2023-02-11T14:10:56.917Z,11.90
2023-02-11T14:13:34.925Z,11.85
2023-02-11T14:18:52.149Z,12.25
2023-02-11T14:21:28.369Z,11.43
2023-02-11T14:24:14.859Z,12.35
2023-02-11T14:26:53.767Z,11.05
2023-02-11T14:29:33.724Z,10.63
2023-02-11T14:32:22.209Z,10.75
2023-02-11T14:34:59.485Z,11.70
2023-02-11T14:38:03.858Z,10.73
2023-02-11T14:40:50.396Z,11.73
2023-02-11T14:45:53.481Z,10.60
2023-02-11T14:48:24.830Z,12.20
2023-02-11T14:51:03.314Z,14.80
2023-02-11T14:53:32.912Z,11.13
2023-02-11T14:55:59.813Z,12.77
2023-02-11T14:58:32.136Z,10.25
2023-02-11T15:01:02.176Z,11.30
2023-02-11T15:03:34.752Z,12.40
2023-02-11T15:06:18.726Z,11.95
2023-02-11T15:09:02.828Z,9.68
2023-02-11T15:11:34.021Z,12.30
2023-02-11T15:14:16.428Z,11.13
2023-02-11T15:16:45.592Z,11.07
2023-02-11T15:19:25.866Z,10.18
2023-02-11T15:21:53.783Z,12.30
2023-02-11T15:24:24.366Z,10.25
2023-02-11T15:27:02.086Z,11.57
2023-02-11T15:29:37.069Z,10.63
2023-02-11T15:32:22.073Z,11.90
2023-02-11T15:37:32.204Z,10.23
2023-02-11T15:40:11.773Z,14.05
2023-02-11T15:42:52.095Z,11.15
2023-02-11T15:45:29.557Z,12.90
2023-02-11T15:48:18.805Z,11.35
2023-02-11T15:50:52.072Z,11.23
2023-02-11T15:53:33.970Z,13.15
2023-02-11T16:03:29.787Z,13.07
2023-02-11T16:06:14.974Z,12.13
2023-02-11T16:08:43.295Z,11.27
2023-02-11T16:11:26.250Z,16.08
2023-02-11T16:16:34.932Z,11.63
2023-02-11T16:19:06.206Z,11.45
2023-02-11T16:21:42.750Z,11.75
2023-02-11T16:25:18.735Z,12.32
2023-02-11T16:54:13.710Z,21.40
2023-02-11T17:00:30.337Z,22.88
2023-02-11T17:05:54.705Z,17.58
2023-02-11T17:09:08.683Z,15.70
2023-02-11T17:11:36.140Z,14.65
2023-02-11T17:14:05.969Z,13.60
2023-02-11T17:16:39.020Z,13.35
2023-02-11T17:20:11.400Z,16.15
2023-02-11T17:22:50.911Z,21.17
2023-02-11T17:25:36.309Z,27.45
2023-02-11T17:28:13.244Z,17.00
2023-02-11T17:30:43.277Z,13.65
2023-02-11T17:33:11.157Z,13.52
2023-02-11T17:35:44.490Z,14.23
2023-02-11T17:38:12.715Z,20.75
2023-02-11T17:40:45.384Z,13.70
2023-02-11T17:43:20.103Z,19.20
2023-02-11T17:45:50.746Z,14.02
2023-02-11T17:48:18.266Z,13.85
2023-02-11T17:50:45.278Z,18.15
2023-02-11T17:53:12.763Z,17.60
2023-02-11T17:58:41.999Z,15.23
2023-02-11T18:01:18.883Z,14.82
2023-02-11T18:03:46.527Z,34.15
2023-02-11T18:06:22.571Z,16.85
2023-02-11T18:08:52.564Z,13.65
2023-02-11T18:11:23.014Z,15.15
2023-02-11T18:13:54.926Z,17.90
2023-02-11T18:16:23.962Z,23.00
2023-02-11T18:18:52.453Z,28.73
2023-02-11T18:23:50.351Z,24.70
2023-02-11T18:26:19.428Z,24.05
2023-02-11T18:28:46.581Z,37.50
2023-02-11T18:31:15.178Z,23.75
2023-02-11T18:33:42.824Z,26.80
2023-02-11T18:36:13.798Z,21.45
2023-02-11T18:38:41.682Z,19.50
2023-02-11T18:41:08.884Z,20.38
2023-02-11T18:43:36.503Z,19.42
2023-02-11T18:46:09.221Z,16.02
2023-02-11T18:48:36.212Z,15.25
2023-02-11T18:51:03.376Z,17.60
2023-02-11T18:53:32.581Z,19.73
2023-02-11T18:55:59.181Z,25.35
2023-02-11T18:58:26.496Z,21.05
2023-02-11T19:00:53.406Z,32.00
2023-02-11T19:03:20.143Z,22.35
2023-02-11T19:05:49.407Z,19.30
2023-02-11T19:08:17.209Z,20.65
2023-02-11T19:10:46.355Z,20.98
2023-02-11T19:13:14.544Z,62.33
2023-02-11T19:15:47.784Z,20.25
2023-02-11T19:18:16.020Z,16.95
2023-02-11T19:20:43.579Z,17.27
2023-02-11T19:23:11.046Z,17.13
2023-02-11T19:25:38.708Z,16.85
2023-02-11T19:28:06.055Z,16.10
2023-02-11T19:30:34.131Z,21.00
2023-02-11T19:33:00.974Z,19.70
2023-02-11T19:35:28.533Z,21.58
2023-02-11T19:37:55.475Z,17.67
2023-02-11T19:40:22.904Z,18.60
2023-02-11T19:42:49.494Z,17.77
2023-02-11T19:45:16.267Z,18.90
2023-02-11T19:47:43.163Z,16.80
2023-02-11T19:50:12.119Z,19.48
2023-02-11T19:52:39.668Z,25.25
2023-02-11T19:55:07.811Z,19.15
2023-02-11T19:57:34.624Z,22.83
2023-02-11T20:00:03.336Z,26.05
2023-02-11T20:02:31.313Z,25.90
2023-02-11T20:04:58.759Z,16.60
2023-02-11T20:07:25.659Z,18.80
2023-02-11T20:09:53.904Z,24.75
2023-02-11T20:12:20.555Z,22.45
2023-02-11T20:14:47.342Z,18.05
2023-02-11T20:17:16.037Z,16.48
2023-02-11T20:19:42.895Z,18.48
2023-02-11T20:22:09.640Z,17.30
2023-02-11T20:24:36.677Z,15.50
2023-02-11T20:27:03.330Z,18.95
2023-02-11T20:29:32.232Z,14.90
2023-02-11T20:31:59.154Z,15.38
2023-02-11T20:34:26.369Z,14.70
2023-02-11T20:36:54.102Z,17.92
2023-02-11T20:39:22.821Z,16.15
2023-02-11T20:41:50.503Z,16.35
2023-02-11T20:44:17.990Z,17.98
2023-02-11T20:46:48.523Z,16.15
2023-02-11T20:52:01.038Z,14.23
2023-02-11T20:54:28.024Z,17.48
2023-02-11T20:56:57.044Z,17.58
2023-02-11T20:59:24.569Z,16.45
2023-02-11T21:01:54.333Z,16.08
2023-02-11T21:04:24.814Z,15.55
2023-02-11T21:06:55.012Z,15.25
2023-02-11T21:12:06.230Z,17.45
2023-02-11T21:14:34.272Z,20.20
2023-02-11T21:17:01.931Z,17.33
2023-02-11T21:19:28.595Z,19.27
2023-02-11T21:21:57.901Z,17.67
2023-02-11T21:24:24.517Z,15.20
2023-02-11T21:26:51.636Z,15.88
2023-02-11T21:29:18.274Z,17.98
2023-02-11T21:31:45.288Z,16.77
2023-02-11T21:34:12.158Z,15.38
2023-02-11T21:36:39.726Z,17.05
2023-02-11T21:39:06.593Z,15.20
2023-02-11T21:41:33.836Z,15.77
2023-02-11T21:44:02.079Z,15.32
2023-02-11T21:46:29.163Z,16.83
2023-02-11T21:49:01.075Z,16.27
2023-02-11T21:51:28.728Z,16.55
2023-02-11T21:56:50.797Z,18.27
2023-02-11T21:59:22.497Z,17.77
2023-02-11T22:01:54.460Z,14.95
2023-02-11T22:04:28.637Z,14.05
2023-02-11T22:06:56.520Z,16.85
2023-02-11T22:09:23.155Z,17.38
2023-02-11T22:11:57.495Z,21.27
2023-02-11T22:14:31.216Z,17.50
2023-02-11T22:17:02.795Z,18.33
2023-02-11T22:19:35.447Z,17.98
2023-02-11T22:22:06.400Z,16.20
2023-02-11T22:24:44.055Z,17.55
2023-02-11T22:27:19.182Z,17.95
2023-02-11T22:29:52.396Z,17.75
2023-02-11T22:32:25.071Z,16.08
2023-02-11T22:34:58.203Z,18.33
2023-02-11T22:37:30.270Z,17.02
2023-02-11T22:40:02.828Z,16.85
2023-02-11T22:42:34.144Z,18.55
2023-02-11T22:45:09.863Z,16.83
2023-02-11T22:47:46.002Z,17.65
2023-02-11T22:50:18.417Z,19.60
2023-02-11T22:52:56.289Z,22.25
2023-02-11T22:55:28.596Z,18.95
2023-02-11T22:58:04.524Z,18.40
2023-02-11T23:00:42.045Z,17.30
2023-02-11T23:03:14.137Z,20.77
2023-02-11T23:05:46.259Z,19.75
2023-02-11T23:11:18.948Z,18.73
2023-02-11T23:13:51.290Z,19.58
2023-02-11T23:16:28.201Z,18.33
2023-02-11T23:19:01.013Z,19.60
2023-02-11T23:21:42.898Z,21.95
2023-02-11T23:24:18.802Z,27.88
2023-02-11T23:26:52.929Z,20.45
2023-02-11T23:29:30.530Z,19.92
2023-02-11T23:32:03.204Z,23.08
2023-02-11T23:34:38.500Z,19.30
2023-02-11T23:37:12.160Z,20.83
2023-02-11T23:39:46.091Z,21.90
2023-02-11T23:42:20.203Z,21.13
2023-02-11T23:44:52.200Z,20.50
2023-02-11T23:47:24.934Z,19.15
2023-02-11T23:49:59.584Z,22.88
2023-02-11T23:52:32.719Z,21.10
2023-02-11T23:55:06.550Z,19.88
2023-02-11T23:57:37.429Z,18.33
